Carlisle, Washington
Current Conditions -  °F | °C
As of 1:53 PM on Friday 28 Nov 2014 (Local Time) from KHQM Reporting Station
Light Rain Light Rain  
Wind Chill:   Ceiling: 4900
Heat Index:   Visibility: 6mi
Dew Point:   Wind: 7mph
Humidity: 89%   Direction: 250°WSW
Pressure: 29.51"   Gusts: NA
Location:  47.1425°N, 124.097°W
Report Text: KHQM 282153Z AUTO 25006KT 6SM -RA BR FEW042 BKN049 OVC060 07/05 A2951 RMK AO2 RAE2058B26 SLP996 P0001 T00670050
Loading
Personal Weather Stations






























Interactive Weather Map New forecast layout! Learn more

10-Day Weather Forecast

Advertisements
Track Severe Weather on mobile